Time;durP1;ratioP1;P1;durP2;ratioP2;P2;SDS_P1;SDS_P2;PMS_P1;PMS_P2;Temp;Humidity;BMP_temperature;BMP_pressure;BME280_temperature;BME280_humidity;BME280_pressure;Samples;Min_cycle;Max_cycle;Signal;HPM_P1;HPM_P2
2021/04/09 04:00:21;;;;;;;8.85;8.00;;;4.20;99.90;;;;;;5952284;23;20220;31
2021/04/09 04:02:48;;;;;;;11.20;9.00;;;4.20;99.90;;;;;;4894633;29;20242;-69
2021/04/09 04:05:16;;;;;;;9.00;7.78;;;4.10;99.90;;;;;;4897332;29;20204;-70
2021/04/09 04:07:42;;;;;;;10.23;8.90;;;4.10;99.90;;;;;;4897794;29;20277;-69
2021/04/09 04:10:10;;;;;;;10.40;9.35;;;4.10;99.90;;;;;;4897277;29;20215;-69
2021/04/09 04:12:36;;;;;;;9.27;8.38;;;4.10;99.90;;;;;;4878687;29;20220;-69
2021/04/09 04:15:03;;;;;;;10.20;8.93;;;4.00;99.90;;;;;;4878497;29;20223;-72
2021/04/09 04:17:30;;;;;;;14.02;8.63;;;4.10;99.90;;;;;;4880016;29;20208;-72
2021/04/09 04:19:57;;;;;;;12.57;9.20;;;4.00;99.90;;;;;;4880108;29;20212;-71
2021/04/09 04:22:23;;;;;;;10.73;9.20;;;4.00;99.90;;;;;;4878451;29;20235;-71
2021/04/09 04:24:49;;;;;;;11.25;9.13;;;4.00;99.90;;;;;;4878647;29;20551;-70
2021/04/09 04:27:16;;;;;;;9.15;8.18;;;4.00;99.90;;;;;;4877590;29;20981;-71
2021/04/09 04:29:42;;;;;;;10.45;9.35;;;4.00;99.90;;;;;;4878620;29;20212;-71
2021/04/09 04:32:08;;;;;;;12.90;9.38;;;4.00;99.90;;;;;;4878198;29;20231;-72
2021/04/09 04:34:36;;;;;;;9.52;8.32;;;4.00;99.90;;;;;;4878377;29;20204;-72
2021/04/09 04:37:02;;;;;;;8.73;8.02;;;4.00;99.90;;;;;;4859592;29;20228;-72
2021/04/09 04:39:28;;;;;;;11.07;7.57;;;4.00;99.90;;;;;;4873335;29;20223;-72
2021/04/09 04:41:54;;;;;;;9.95;8.23;;;4.00;99.90;;;;;;4878208;29;20236;-71
2021/04/09 04:44:21;;;;;;;10.40;8.48;;;4.00;99.90;;;;;;4878265;29;20620;-71
2021/04/09 04:46:47;;;;;;;9.93;8.65;;;4.00;99.90;;;;;;4878275;29;20230;-70
2021/04/09 04:49:13;;;;;;;12.38;8.15;;;4.10;99.90;;;;;;4878955;29;20220;-70
2021/04/09 04:51:40;;;;;;;11.73;8.35;;;4.10;99.90;;;;;;4877831;29;20646;-70
2021/04/09 04:54:06;;;;;;;9.07;8.18;;;4.10;99.90;;;;;;4878204;29;20283;-72
2021/04/09 04:56:33;;;;;;;10.40;9.15;;;4.10;99.90;;;;;;4877445;29;20223;-71
2021/04/09 04:58:59;;;;;;;11.43;8.25;;;4.20;99.90;;;;;;4878159;29;20208;-72
2021/04/09 05:01:25;;;;;;;10.30;8.05;;;4.20;99.90;;;;;;4878138;29;20251;-71
2021/04/09 05:03:51;;;;;;;8.45;7.55;;;4.30;99.90;;;;;;4878322;29;20208;-72
2021/04/09 05:06:17;;;;;;;11.20;7.72;;;4.30;99.90;;;;;;4877314;29;20212;-72
2021/04/09 05:08:44;;;;;;;8.70;8.00;;;4.40;99.90;;;;;;4877828;29;20215;-72
2021/04/09 05:11:11;;;;;;;8.18;7.45;;;4.50;99.90;;;;;;4878209;29;20641;-71
2021/04/09 05:13:37;;;;;;;9.20;8.30;;;4.50;99.90;;;;;;4877580;29;20220;-72
2021/04/09 05:16:04;;;;;;;9.20;7.68;;;4.50;99.90;;;;;;4878168;29;20228;-72
2021/04/09 05:18:30;;;;;;;10.90;8.73;;;4.60;99.90;;;;;;4877794;29;20212;-72
2021/04/09 05:20:56;;;;;;;8.18;7.45;;;4.60;99.90;;;;;;4877574;29;20227;-71
2021/04/09 05:23:22;;;;;;;9.15;8.23;;;4.70;99.90;;;;;;4877857;29;20223;-71
2021/04/09 05:25:49;;;;;;;9.02;8.20;;;4.70;99.90;;;;;;4878131;29;20212;-72
2021/04/09 05:28:16;;;;;;;9.45;7.68;;;4.80;99.90;;;;;;4877370;29;20210;-71
2021/04/09 05:30:42;;;;;;;9.65;8.57;;;4.90;99.90;;;;;;4881433;29;20278;-72
2021/04/09 05:33:08;;;;;;;10.02;7.80;;;5.00;99.90;;;;;;4881363;29;20204;-70
2021/04/09 05:35:35;;;;;;;8.82;8.02;;;5.00;99.90;;;;;;4881159;29;20656;-72
2021/04/09 05:38:01;;;;;;;11.95;7.25;;;5.00;99.90;;;;;;4882892;29;20277;-73
2021/04/09 05:40:27;;;;;;;8.80;8.00;;;5.10;99.90;;;;;;4882433;29;20227;-72
2021/04/09 05:42:58;;;;;;;10.40;8.63;;;5.10;99.90;;;;;;4881759;29;20211;-72
2021/04/09 05:45:25;;;;;;;8.85;7.53;;;5.40;99.90;;;;;;4882313;29;20208;-72
2021/04/09 05:47:51;;;;;;;10.57;7.60;;;5.50;99.90;;;;;;4882525;29;20576;-72
2021/04/09 05:50:18;;;;;;;9.30;8.40;;;5.50;99.90;;;;;;4882061;29;20200;-72
2021/04/09 05:52:44;;;;;;;10.20;9.02;;;5.50;99.90;;;;;;4881996;29;20228;-73
2021/04/09 05:55:11;;;;;;;8.65;7.85;;;5.40;99.90;;;;;;4881675;29;20208;-71
2021/04/09 05:57:38;;;;;;;8.60;7.70;;;5.40;99.90;;;;;;4880512;29;20232;-71
2021/04/09 06:00:06;;;;;;;9.43;8.50;;;5.40;99.90;;;;;;4880812;29;20282;-69
2021/04/09 06:02:33;;;;;;;13.57;9.90;;;5.40;99.90;;;;;;4881276;29;20583;-72
2021/04/09 06:04:59;;;;;;;9.77;8.23;;;5.60;99.90;;;;;;4880618;29;20347;-72
2021/04/09 06:07:26;;;;;;;16.38;13.25;;;5.60;99.90;;;;;;4880917;29;20280;-72
2021/04/09 06:09:52;;;;;;;34.38;20.58;;;5.60;99.90;;;;;;4880971;29;20314;-71
2021/04/09 06:12:19;;;;;;;16.85;13.23;;;5.60;99.90;;;;;;4879935;29;20242;-72
2021/04/09 06:14:45;;;;;;;10.90;9.75;;;5.60;99.90;;;;;;4890653;29;20211;-72
2021/04/09 06:17:12;;;;;;;38.67;20.90;;;5.60;99.90;;;;;;4880735;29;20231;-72
2021/04/09 06:19:38;;;;;;;15.25;12.55;;;5.60;99.90;;;;;;4880925;29;20235;-72
2021/04/09 06:22:05;;;;;;;17.75;12.55;;;5.60;99.90;;;;;;4879793;29;20224;-71
2021/04/09 06:24:31;;;;;;;19.30;13.07;;;5.70;99.90;;;;;;4881022;29;20253;-72
2021/04/09 06:26:57;;;;;;;10.77;9.43;;;5.70;99.90;;;;;;4880151;29;20212;-71
2021/04/09 06:29:23;;;;;;;13.73;11.70;;;5.80;99.90;;;;;;4881158;29;20216;-72
2021/04/09 06:31:49;;;;;;;11.38;9.60;;;5.80;99.90;;;;;;4879804;29;20731;-71
2021/04/09 06:34:16;;;;;;;12.73;10.02;;;5.80;99.90;;;;;;4880335;29;20248;-71
2021/04/09 06:36:43;;;;;;;12.90;8.32;;;5.80;99.90;;;;;;4879517;29;20246;-68
2021/04/09 06:39:09;;;;;;;14.60;11.35;;;5.90;99.90;;;;;;4880050;29;20219;-68
2021/04/09 06:41:35;;;;;;;16.20;10.93;;;5.80;99.90;;;;;;4879717;29;20270;-68
2021/04/09 06:44:02;;;;;;;12.23;10.48;;;5.90;99.90;;;;;;4880486;29;20252;-68
2021/04/09 06:46:28;;;;;;;10.38;9.38;;;5.90;99.90;;;;;;4882011;29;20203;-69
2021/04/09 06:48:55;;;;;;;10.63;8.43;;;5.90;99.90;;;;;;4881666;29;20491;-69
2021/04/09 06:51:23;;;;;;;12.15;9.13;;;6.00;99.90;;;;;;4879610;29;20252;-68
2021/04/09 06:53:49;;;;;;;8.23;7.43;;;5.90;99.90;;;;;;4880305;29;20334;-68
2021/04/09 06:56:16;;;;;;;9.23;8.32;;;6.00;99.90;;;;;;4879507;29;20227;-69
2021/04/09 06:58:46;;;;;;;9.57;8.75;;;6.00;99.90;;;;;;4879596;29;20215;-68
2021/04/09 07:01:15;;;;;;;13.27;11.20;;;6.00;99.90;;;;;;4879314;29;20247;-69
2021/04/09 07:03:41;;;;;;;14.63;10.68;;;6.00;99.90;;;;;;4879210;29;20204;-68
2021/04/09 07:06:08;;;;;;;9.93;8.63;;;6.10;99.90;;;;;;4879573;29;20236;-71
2021/04/09 07:08:39;;;;;;;10.00;9.07;;;6.10;99.90;;;;;;4879544;29;20291;-72
2021/04/09 07:11:05;;;;;;;9.10;8.38;;;6.10;99.90;;;;;;4879825;29;20599;-72
2021/04/09 07:13:32;;;;;;;11.00;7.93;;;6.20;99.90;;;;;;4878490;29;20203;-71
2021/04/09 07:16:07;;;;;;;11.02;7.65;;;6.20;99.90;;;;;;4880442;29;20260;-71
2021/04/09 07:18:48;;;;;;;10.35;9.35;;;6.20;99.90;;;;;;4880532;29;20212;-72
2021/04/09 07:21:22;;;;;;;10.43;9.43;;;6.30;99.90;;;;;;4879392;29;20236;-72
2021/04/09 07:23:50;;;;;;;12.25;8.98;;;6.40;99.90;;;;;;4879497;29;20657;-72
2021/04/09 07:26:38;;;;;;;17.67;11.98;;;6.40;99.90;;;;;;4879799;29;20219;-72
2021/04/09 07:29:05;;;;;;;11.35;8.65;;;6.50;99.90;;;;;;4879664;29;20208;-72
2021/04/09 07:31:32;;;;;;;10.43;8.98;;;6.50;99.90;;;;;;4874943;29;20237;-72
2021/04/09 07:33:59;;;;;;;16.17;10.75;;;6.70;99.90;;;;;;4880229;29;20276;-72
2021/04/09 07:36:25;;;;;;;9.68;8.68;;;6.70;99.90;;;;;;4877995;29;20224;-71
2021/04/09 07:38:53;;;;;;;10.65;9.15;;;6.80;99.90;;;;;;4879165;29;20211;-71
2021/04/09 07:41:19;;;;;;;13.70;10.80;;;6.80;99.90;;;;;;4877947;29;20304;-71
2021/04/09 07:43:45;;;;;;;12.13;9.70;;;6.90;99.90;;;;;;4878195;29;20233;-71
2021/04/09 07:46:21;;;;;;;9.65;8.75;;;7.00;99.90;;;;;;4877201;29;20215;-71
2021/04/09 07:48:49;;;;;;;12.40;9.63;;;7.00;99.90;;;;;;4879649;29;20634;-71
2021/04/09 07:51:19;;;;;;;11.60;10.38;;;7.10;99.90;;;;;;4877900;29;20684;-71
2021/04/09 07:53:46;;;;;;;14.88;13.32;;;7.30;99.90;;;;;;4879042;29;20205;-71
2021/04/09 07:56:14;;;;;;;11.57;10.40;;;7.40;99.90;;;;;;4879793;29;20228;-72
2021/04/09 07:58:42;;;;;;;12.80;10.00;;;7.50;99.90;;;;;;4878478;29;20203;-71
2021/04/09 08:01:19;;;;;;;9.45;8.65;;;7.60;99.90;;;;;;4878187;29;20236;-71
2021/04/09 08:03:45;;;;;;;10.93;9.80;;;7.60;99.90;;;;;;4874207;29;20208;-71
2021/04/09 08:06:13;;;;;;;15.48;10.82;;;7.70;99.90;;;;;;4880473;29;20728;-69
2021/04/09 08:08:54;;;;;;;9.10;8.38;;;7.80;99.90;;;;;;4879307;29;20222;-71
2021/04/09 08:11:26;;;;;;;11.77;10.57;;;7.80;99.90;;;;;;4878357;29;20288;-71
2021/04/09 08:14:01;;;;;;;10.70;8.82;;;7.90;99.90;;;;;;4874912;29;20208;-71
2021/04/09 08:16:29;;;;;;;9.38;8.57;;;7.90;99.90;;;;;;4878259;29;20243;-71
2021/04/09 08:19:00;;;;;;;11.75;10.40;;;8.00;99.90;;;;;;4879110;29;20239;-72
2021/04/09 08:21:28;;;;;;;12.27;9.27;;;8.10;99.90;;;;;;4877983;29;20230;-71
2021/04/09 08:23:56;;;;;;;9.38;8.57;;;8.20;99.90;;;;;;4878839;29;20649;-71
2021/04/09 08:26:24;;;;;;;11.50;8.35;;;8.30;99.90;;;;;;4878398;29;20216;-71
2021/04/09 08:28:52;;;;;;;12.00;8.50;;;8.50;99.90;;;;;;4878926;29;20212;-71
2021/04/09 08:31:18;;;;;;;11.73;10.07;;;8.60;99.90;;;;;;4876849;29;20363;-70
2021/04/09 08:33:47;;;;;;;12.20;9.73;;;8.70;99.90;;;;;;4878574;29;20263;-71
2021/04/09 08:36:13;;;;;;;10.02;8.88;;;8.80;99.90;;;;;;4876731;29;20224;-71
2021/04/09 08:38:40;;;;;;;8.65;7.93;;;8.80;99.90;;;;;;4878387;29;20216;-67
2021/04/09 08:41:06;;;;;;;10.13;9.20;;;8.90;99.90;;;;;;4877572;29;20246;-68
2021/04/09 08:43:33;;;;;;;10.10;8.38;;;9.10;99.90;;;;;;4875799;29;20219;-68
2021/04/09 08:46:00;;;;;;;10.60;9.45;;;9.20;99.90;;;;;;4878669;29;20208;-67
2021/04/09 08:48:27;;;;;;;9.90;9.02;;;9.20;99.90;;;;;;4877496;29;20212;-69
2021/04/09 08:50:53;;;;;;;10.07;9.18;;;9.20;99.90;;;;;;4878606;29;20228;-68
2021/04/09 08:53:24;;;;;;;10.43;9.32;;;9.30;99.90;;;;;;4877933;29;20311;-67
2021/04/09 08:55:50;;;;;;;11.80;9.65;;;9.30;99.90;;;;;;4878240;29;20224;-68
2021/04/09 08:58:17;;;;;;;13.90;9.32;;;9.30;99.90;;;;;;4878060;29;20219;-68
2021/04/09 09:00:46;;;;;;;9.60;8.75;;;9.30;99.90;;;;;;4878007;29;20236;-69
2021/04/09 09:03:27;;;;;;;10.85;9.50;;;9.50;99.90;;;;;;4878037;29;20226;-68
2021/04/09 09:05:55;;;;;;;9.40;8.52;;;9.60;99.90;;;;;;4881899;29;20649;-68
2021/04/09 09:08:22;;;;;;;10.52;9.50;;;9.70;99.90;;;;;;4882079;29;20732;-68
2021/04/09 09:10:48;;;;;;;10.02;8.95;;;9.70;99.90;;;;;;4875739;29;20238;-68
2021/04/09 09:13:25;;;;;;;11.50;8.98;;;9.80;99.90;;;;;;4881679;29;20204;-68
2021/04/09 09:15:53;;;;;;;10.52;8.60;;;9.90;99.90;;;;;;4873089;29;20263;-66
2021/04/09 09:18:45;;;;;;;10.52;9.45;;;10.00;99.90;;;;;;4881576;29;20199;-67
2021/04/09 09:21:23;;;;;;;8.32;7.63;;;10.00;99.90;;;;;;4881571;29;20232;-67
2021/04/09 09:23:51;;;;;;;9.23;8.43;;;10.10;99.90;;;;;;4880226;29;20210;-67
2021/04/09 09:26:20;;;;;;;10.48;8.95;;;10.20;99.90;;;;;;4882149;29;20630;-67
2021/04/09 09:28:47;;;;;;;10.25;9.25;;;10.30;99.90;;;;;;4882497;29;20235;-67
2021/04/09 09:31:28;;;;;;;9.57;8.60;;;10.30;99.90;;;;;;4882032;29;20239;-67
2021/04/09 09:34:28;;;;;;;8.85;8.05;;;10.50;99.90;;;;;;4883077;29;20228;-69
2021/04/09 09:37:01;;;;;;;8.50;7.88;;;10.70;99.90;;;;;;4882924;29;20232;-68
2021/04/09 09:39:34;;;;;;;9.85;8.13;;;10.80;99.90;;;;;;4887959;29;20219;-68
2021/04/09 09:42:01;;;;;;;9.00;8.10;;;11.00;99.90;;;;;;4886421;29;20474;-68
2021/04/09 09:44:41;;;;;;;8.40;7.55;;;11.20;99.90;;;;;;4886797;29;20215;-68
2021/04/09 09:47:25;;;;;;;9.50;8.38;;;11.40;99.90;;;;;;4881680;29;20211;-67
2021/04/09 09:50:23;;;;;;;7.13;6.53;;;11.50;99.90;;;;;;4880214;29;20226;-67
2021/04/09 09:52:56;;;;;;;8.07;7.25;;;11.40;99.90;;;;;;4863251;29;20216;-67
2021/04/09 09:55:25;;;;;;;9.10;8.30;;;11.40;99.90;;;;;;4866036;29;20211;-67
2021/04/09 09:57:53;;;;;;;8.77;7.90;;;11.30;99.90;;;;;;4881198;29;20264;-67
2021/04/09 10:00:28;;;;;;;9.73;8.73;;;11.30;99.90;;;;;;4879902;29;20564;-68
2021/04/09 10:03:10;;;;;;;8.90;8.00;;;11.40;99.90;;;;;;4880809;29;20471;-69
2021/04/09 10:05:36;;;;;;;7.45;6.75;;;11.50;99.90;;;;;;4880714;29;20279;-70
2021/04/09 10:08:03;;;;;;;7.03;6.50;;;11.40;99.90;;;;;;4881368;29;20216;-70
2021/04/09 10:10:42;;;;;;;7.22;6.65;;;11.30;99.90;;;;;;4880893;29;20228;-69
2021/04/09 10:13:23;;;;;;;7.38;6.72;;;11.30;99.90;;;;;;4880682;29;20262;-69
2021/04/09 10:15:51;;;;;;;7.90;7.22;;;11.40;99.90;;;;;;4880178;29;20224;-70
2021/04/09 10:18:19;;;;;;;9.07;8.27;;;11.50;99.90;;;;;;4880389;29;20237;-70
2021/04/09 10:20:47;;;;;;;8.20;7.50;;;11.60;99.90;;;;;;4877161;29;20224;-71
2021/04/09 10:23:14;;;;;;;6.97;6.40;;;11.70;99.90;;;;;;4881137;29;20204;-71
2021/04/09 10:25:40;;;;;;;8.95;7.10;;;11.70;99.90;;;;;;4881609;29;20207;-71
2021/04/09 10:28:12;;;;;;;8.57;7.35;;;11.80;99.90;;;;;;4881556;29;20231;-71
2021/04/09 10:30:39;;;;;;;7.32;6.32;;;11.70;99.90;;;;;;4876548;29;20269;-71
2021/04/09 10:33:06;;;;;;;7.03;6.45;;;11.80;99.90;;;;;;4878749;29;20204;-72
2021/04/09 10:35:35;;;;;;;7.38;6.68;;;11.80;99.90;;;;;;4875120;29;20277;-70
2021/04/09 10:38:09;;;;;;;6.70;6.00;;;11.80;99.90;;;;;;4880440;29;20215;-70
2021/04/09 10:40:50;;;;;;;14.88;8.65;;;11.90;99.90;;;;;;4879670;29;20283;-70
2021/04/09 10:43:27;;;;;;;8.70;6.78;;;12.00;99.90;;;;;;4880382;29;20238;-71
2021/04/09 10:46:08;;;;;;;6.78;6.18;;;12.00;99.90;;;;;;4879766;29;20199;-72
2021/04/09 10:48:34;;;;;;;6.57;5.80;;;12.10;99.90;;;;;;4878773;29;20220;-72
2021/04/09 10:51:01;;;;;;;7.82;7.13;;;12.10;99.90;;;;;;4876121;29;20594;-74
2021/04/09 10:53:28;;;;;;;6.57;6.00;;;12.20;99.90;;;;;;4882047;29;20212;-74
2021/04/09 10:56:03;;;;;;;6.50;6.00;;;12.40;99.90;;;;;;4883461;29;20348;-73
2021/04/09 10:58:30;;;;;;;5.82;5.40;;;12.40;99.90;;;;;;4876892;29;20212;-70
2021/04/09 11:00:56;;;;;;;5.88;5.47;;;12.40;99.90;;;;;;4876172;29;20244;-69
2021/04/09 11:03:23;;;;;;;7.22;6.43;;;12.40;99.90;;;;;;4876796;29;20256;-71
2021/04/09 11:05:49;;;;;;;6.78;6.20;;;12.40;99.90;;;;;;4865536;29;20208;-70
2021/04/09 11:08:30;;;;;;;6.15;5.72;;;12.40;99.90;;;;;;4879368;29;20204;-70
2021/04/09 11:11:01;;;;;;;6.00;5.60;;;12.50;99.90;;;;;;4863387;29;20224;-72
2021/04/09 11:13:35;;;;;;;5.60;5.15;;;12.40;99.90;;;;;;4864968;29;20212;-73
2021/04/09 11:16:02;;;;;;;5.63;5.30;;;12.40;99.90;;;;;;4870390;29;20254;-73
2021/04/09 11:18:47;;;;;;;6.50;6.00;;;12.40;99.90;;;;;;4883570;29;20219;-73
2021/04/09 11:21:13;;;;;;;5.63;5.35;;;12.50;99.90;;;;;;4871989;29;20231;-73
2021/04/09 11:23:41;;;;;;;6.30;5.78;;;12.40;99.90;;;;;;4882427;29;20299;-73
2021/04/09 11:26:17;;;;;;;6.47;6.00;;;12.50;99.90;;;;;;4882206;29;20204;-73
2021/04/09 11:28:52;;;;;;;5.30;5.00;;;12.50;99.90;;;;;;4882129;29;20259;-71
2021/04/09 11:31:22;;;;;;;5.90;5.30;;;12.50;99.90;;;;;;4878153;29;20243;-70
2021/04/09 11:33:48;;;;;;;4.55;4.35;;;12.60;99.90;;;;;;4879004;29;20336;-70
2021/04/09 11:36:16;;;;;;;4.97;4.68;;;12.60;99.90;;;;;;4878757;29;20693;-71
2021/04/09 11:38:43;;;;;;;5.47;5.07;;;12.80;99.90;;;;;;4879893;29;20652;-71
2021/04/09 11:41:25;;;;;;;4.85;4.55;;;12.90;99.90;;;;;;4880055;29;20228;-71
2021/04/09 11:43:51;;;;;;;5.07;4.60;;;12.90;99.90;;;;;;4880284;29;20212;-71
2021/04/09 11:46:32;;;;;;;4.35;4.15;;;12.90;99.90;;;;;;4880150;29;20268;-71
2021/04/09 11:49:00;;;;;;;4.90;4.55;;;12.80;99.90;;;;;;4859448;29;20662;-71
2021/04/09 11:51:26;;;;;;;4.70;4.33;;;12.70;99.90;;;;;;4877539;29;20816;-69
2021/04/09 11:54:01;;;;;;;4.68;4.38;;;12.80;99.90;;;;;;4879594;29;20504;-69
2021/04/09 11:56:41;;;;;;;4.68;4.28;;;12.80;99.90;;;;;;4878698;29;20603;-71
2021/04/09 11:59:11;;;;;;;3.63;3.50;;;12.70;99.90;;;;;;4879821;29;20223;-71
2021/04/09 12:01:38;;;;;;;4.10;3.90;;;12.80;99.90;;;;;;4879088;29;20242;-71
2021/04/09 12:04:04;;;;;;;4.28;3.97;;;12.80;99.90;;;;;;4879685;29;20268;-71
2021/04/09 12:06:36;;;;;;;6.60;5.72;;;12.90;99.90;;;;;;4878903;29;20208;-71
2021/04/09 12:09:03;;;;;;;4.50;4.20;;;12.90;99.90;;;;;;4879938;29;20247;-71
2021/04/09 12:11:29;;;;;;;3.78;3.58;;;12.90;99.90;;;;;;4878911;29;20223;-67
2021/04/09 12:13:56;;;;;;;4.20;3.90;;;12.90;99.90;;;;;;4879319;29;20211;-68
2021/04/09 12:16:22;;;;;;;4.93;4.65;;;13.00;99.90;;;;;;4879532;29;20593;-68
2021/04/09 12:18:48;;;;;;;4.37;3.97;;;13.00;99.90;;;;;;4879299;29;20216;-68
2021/04/09 12:21:14;;;;;;;4.75;4.40;;;13.10;99.90;;;;;;4879262;29;20488;-68
2021/04/09 12:23:41;;;;;;;4.77;4.37;;;13.10;99.90;;;;;;4878990;29;20502;-69
2021/04/09 12:26:07;;;;;;;5.25;4.95;;;13.10;99.90;;;;;;4879036;29;20867;-69
2021/04/09 12:28:34;;;;;;;4.03;3.83;;;13.00;99.90;;;;;;4878374;29;20219;-69
2021/04/09 12:31:00;;;;;;;4.40;4.10;;;13.10;99.90;;;;;;4878498;29;20487;-68
2021/04/09 12:33:26;;;;;;;4.35;4.05;;;13.00;99.90;;;;;;4878729;29;20224;-69
2021/04/09 12:35:52;;;;;;;4.22;4.00;;;13.00;99.90;;;;;;4878618;29;20219;-71
2021/04/09 12:38:18;;;;;;;4.50;4.30;;;13.00;99.90;;;;;;4878557;29;20212;-70
2021/04/09 12:40:45;;;;;;;5.20;4.83;;;12.90;99.90;;;;;;4878579;29;20563;-69
2021/04/09 12:43:12;;;;;;;4.60;4.30;;;12.80;99.90;;;;;;4877546;29;20468;-70
2021/04/09 12:45:38;;;;;;;5.28;4.82;;;12.80;99.90;;;;;;4879035;29;20468;-69
2021/04/09 12:48:05;;;;;;;5.53;5.10;;;12.80;99.90;;;;;;4879037;29;20557;-68
2021/04/09 12:50:32;;;;;;;5.68;5.28;;;12.80;99.90;;;;;;4878393;29;20235;-68
2021/04/09 12:52:58;;;;;;;5.80;5.30;;;12.80;99.90;;;;;;4878413;29;20269;-68
2021/04/09 12:55:24;;;;;;;5.72;5.32;;;12.80;99.90;;;;;;4878706;29;20314;-69
2021/04/09 12:57:50;;;;;;;6.82;6.32;;;12.80;99.90;;;;;;4878014;29;20239;-68
2021/04/09 13:00:19;;;;;;;5.60;5.28;;;12.70;99.90;;;;;;4878569;29;20224;-68
2021/04/09 13:02:45;;;;;;;6.23;5.60;;;12.70;99.90;;;;;;4878374;29;20203;-69
2021/04/09 13:05:12;;;;;;;6.40;5.40;;;12.70;99.90;;;;;;4878154;29;20468;-70
2021/04/09 13:07:38;;;;;;;6.20;5.65;;;12.60;99.90;;;;;;4878474;29;20471;-70
2021/04/09 13:10:05;;;;;;;6.05;5.35;;;12.60;99.90;;;;;;4878654;29;20212;-71
2021/04/09 13:12:32;;;;;;;4.88;4.68;;;12.50;99.90;;;;;;4877704;29;20216;-70
2021/04/09 13:14:58;;;;;;;8.50;7.25;;;12.50;99.90;;;;;;4878580;29;20216;-71
2021/04/09 13:17:25;;;;;;;6.00;5.70;;;12.60;99.90;;;;;;4878605;29;20236;-71
2021/04/09 13:19:51;;;;;;;5.73;5.43;;;12.70;99.90;;;;;;4878159;29;20222;-71
2021/04/09 13:22:17;;;;;;;6.40;6.00;;;12.90;99.90;;;;;;4877963;29;20820;-69
2021/04/09 13:24:43;;;;;;;7.33;6.63;;;13.00;99.90;;;;;;4878085;29;20475;-70
2021/04/09 13:27:14;;;;;;;6.90;6.30;;;13.10;99.90;;;;;;4878174;29;20464;-69
2021/04/09 13:29:41;;;;;;;6.33;5.73;;;13.20;99.90;;;;;;4878363;29;20558;-68
2021/04/09 13:32:07;;;;;;;6.80;6.30;;;13.30;99.90;;;;;;4877774;29;20552;-69
2021/04/09 13:34:35;;;;;;;5.80;5.30;;;13.40;99.90;;;;;;4878515;29;20468;-69
2021/04/09 13:37:01;;;;;;;5.03;4.53;;;13.30;99.90;;;;;;4877427;29;20492;-69
2021/04/09 13:39:27;;;;;;;6.60;6.20;;;13.20;99.90;;;;;;4877991;29;20518;-71
2021/04/09 13:41:53;;;;;;;6.73;6.30;;;12.90;99.90;;;;;;4877550;29;20603;-71
2021/04/09 13:44:19;;;;;;;5.63;5.23;;;12.80;99.90;;;;;;4878142;29;20520;-71
2021/04/09 13:46:45;;;;;;;6.75;6.25;;;12.70;99.90;;;;;;4878106;29;20464;-69
2021/04/09 13:49:12;;;;;;;5.70;5.20;;;12.70;99.90;;;;;;4878509;29;20208;-70
2021/04/09 13:51:39;;;;;;;6.30;5.80;;;12.70;99.90;;;;;;4880253;29;20492;-71
2021/04/09 13:54:06;;;;;;;6.23;5.83;;;12.60;99.90;;;;;;4881490;29;20212;-71
2021/04/09 13:56:32;;;;;;;6.28;5.88;;;12.60;99.90;;;;;;4881101;29;20492;-69
2021/04/09 13:58:58;;;;;;;6.88;6.38;;;12.50;99.90;;;;;;4881773;29;20208;-69
2021/04/09 14:01:24;;;;;;;6.70;6.10;;;12.50;99.90;;;;;;4880985;29;20607;-68
2021/04/09 14:03:50;;;;;;;6.22;5.72;;;12.50;99.90;;;;;;4881363;29;20212;-68
2021/04/09 14:06:17;;;;;;;7.03;6.43;;;12.40;99.90;;;;;;4880990;29;20235;-68
2021/04/09 14:08:44;;;;;;;7.13;6.70;;;12.40;99.90;;;;;;4881402;29;20222;-68
2021/04/09 14:11:10;;;;;;;7.57;6.60;;;12.20;99.90;;;;;;4881151;29;20232;-68
2021/04/09 14:13:36;;;;;;;6.63;6.10;;;12.20;99.90;;;;;;4880434;29;20215;-68
2021/04/09 14:16:03;;;;;;;6.38;5.97;;;12.10;99.90;;;;;;4881373;29;20211;-69
2021/04/09 14:18:29;;;;;;;8.02;7.32;;;12.00;99.90;;;;;;4880933;29;20264;-69
2021/04/09 14:20:55;;;;;;;7.57;6.93;;;12.00;99.90;;;;;;4880677;29;20232;-69
2021/04/09 14:23:21;;;;;;;8.90;8.05;;;12.00;99.90;;;;;;4880913;29;20606;-69
2021/04/09 14:25:48;;;;;;;9.93;9.02;;;12.00;99.90;;;;;;4880357;29;20226;-71
2021/04/09 14:28:14;;;;;;;7.97;7.20;;;11.90;99.90;;;;;;4880910;29;20597;-70
2021/04/09 14:30:41;;;;;;;8.70;8.02;;;11.90;99.90;;;;;;4880789;29;20231;-68
2021/04/09 14:33:08;;;;;;;7.30;6.80;;;11.80;99.90;;;;;;4877963;29;20252;-70
2021/04/09 14:35:34;;;;;;;8.00;7.45;;;11.80;99.90;;;;;;4880250;29;20219;-70
2021/04/09 14:38:00;;;;;;;8.40;7.45;;;11.80;99.90;;;;;;4880624;29;20573;-68
2021/04/09 14:40:26;;;;;;;7.93;7.22;;;11.80;99.90;;;;;;4879017;29;20657;-68
2021/04/09 14:42:53;;;;;;;7.45;6.75;;;11.80;99.90;;;;;;4868689;29;20673;-68
2021/04/09 14:45:23;;;;;;;8.57;7.85;;;11.80;99.90;;;;;;4867842;29;20314;-70
2021/04/09 14:47:50;;;;;;;7.15;6.60;;;11.70;99.90;;;;;;4879993;29;20732;-68
2021/04/09 14:50:18;;;;;;;7.30;6.68;;;11.70;99.90;;;;;;4879007;29;20211;-69
2021/04/09 14:52:44;;;;;;;7.70;6.95;;;11.70;99.90;;;;;;4877530;29;20239;-68
2021/04/09 14:55:12;;;;;;;9.20;8.30;;;11.70;99.90;;;;;;4880450;29;20216;-69
2021/04/09 14:57:39;;;;;;;7.80;7.10;;;11.80;99.90;;;;;;4879283;29;20245;-70
2021/04/09 15:00:09;;;;;;;8.25;7.43;;;11.80;99.90;;;;;;4880030;29;20215;-70
2021/04/09 15:02:35;;;;;;;8.85;8.18;;;11.80;99.90;;;;;;4877562;29;20219;-70
2021/04/09 15:05:01;;;;;;;8.30;7.70;;;11.80;99.90;;;;;;4877214;29;20311;-70
2021/04/09 15:07:28;;;;;;;7.63;7.13;;;11.80;99.90;;;;;;4880116;29;20308;-70
2021/04/09 15:09:54;;;;;;;9.57;8.70;;;11.80;99.90;;;;;;4879662;29;20208;-70
2021/04/09 15:12:20;;;;;;;9.27;8.60;;;11.80;99.90;;;;;;4877474;29;20242;-70
2021/04/09 15:14:47;;;;;;;8.23;7.72;;;11.90;99.90;;;;;;4879690;29;20339;-70
2021/04/09 15:17:14;;;;;;;8.57;7.97;;;11.90;99.90;;;;;;4875332;29;20227;-69
2021/04/09 15:19:40;;;;;;;9.30;8.57;;;11.90;99.90;;;;;;4876577;29;20212;-70
2021/04/09 15:22:07;;;;;;;10.77;8.45;;;11.90;99.90;;;;;;4876932;29;20328;-70
2021/04/09 15:24:33;;;;;;;8.15;7.55;;;12.00;99.90;;;;;;4879041;29;20259;-70
2021/04/09 15:26:59;;;;;;;9.27;8.48;;;12.00;99.90;;;;;;4878647;29;20212;-70
2021/04/09 15:29:26;;;;;;;8.68;7.97;;;12.00;99.90;;;;;;4878254;29;20224;-70
2021/04/09 15:31:52;;;;;;;9.65;8.85;;;12.00;99.90;;;;;;4879310;29;20235;-70
2021/04/09 15:34:19;;;;;;;10.05;9.23;;;12.00;99.90;;;;;;4879341;29;20214;-69
2021/04/09 15:36:45;;;;;;;7.97;7.35;;;12.00;99.90;;;;;;4877061;29;20224;-70
2021/04/09 15:39:11;;;;;;;9.52;8.63;;;11.90;99.90;;;;;;4877298;29;20212;-70
2021/04/09 15:41:38;;;;;;;7.63;7.13;;;11.90;99.90;;;;;;4879033;29;20255;-70
2021/04/09 15:44:05;;;;;;;11.07;8.23;;;11.90;99.90;;;;;;4878257;29;20284;-70
2021/04/09 15:46:31;;;;;;;8.75;7.90;;;11.90;99.90;;;;;;4872831;29;20200;-69
2021/04/09 15:48:57;;;;;;;10.07;8.90;;;11.90;99.90;;;;;;4873904;29;20500;-70
2021/04/09 15:51:24;;;;;;;8.80;7.95;;;11.80;99.90;;;;;;4878249;29;20240;-69
2021/04/09 15:53:51;;;;;;;8.73;7.93;;;11.80;99.90;;;;;;4872477;29;20672;-69
2021/04/09 15:56:17;;;;;;;9.27;8.57;;;11.70;99.90;;;;;;4879167;29;20234;-69
2021/04/09 15:58:43;;;;;;;8.05;7.53;;;11.70;99.90;;;;;;4878300;29;20617;-69
2021/04/09 16:01:09;;;;;;;8.95;8.10;;;11.70;99.90;;;;;;4878700;29;20247;-69
2021/04/09 16:03:35;;;;;;;13.68;11.13;;;11.60;99.90;;;;;;4877535;29;20231;-69
2021/04/09 16:06:02;;;;;;;11.88;10.32;;;11.30;99.90;;;;;;4878360;29;20204;-70
2021/04/09 16:08:29;;;;;;;11.07;10.05;;;11.10;99.90;;;;;;4878841;29;20283;-70
2021/04/09 16:10:55;;;;;;;8.68;7.88;;;10.90;99.90;;;;;;4877692;29;20258;-69
2021/04/09 16:13:22;;;;;;;10.70;7.90;;;10.70;99.90;;;;;;4877012;29;20211;-68
2021/04/09 16:15:48;;;;;;;6.90;6.40;;;10.40;99.90;;;;;;4877510;29;20219;-70
2021/04/09 16:18:15;;;;;;;9.25;6.00;;;10.20;99.90;;;;;;4878585;29;20228;-68
2021/04/09 16:20:41;;;;;;;5.95;5.55;;;10.10;99.90;;;;;;4877196;29;20728;-69
2021/04/09 16:23:09;;;;;;;5.30;5.00;;;10.00;99.90;;;;;;4878147;29;20204;-68
2021/04/09 16:25:36;;;;;;;5.15;4.70;;;9.90;99.90;;;;;;4878052;29;20207;-69
2021/04/09 16:28:03;;;;;;;6.00;5.50;;;9.80;99.90;;;;;;4878219;29;20204;-69
2021/04/09 16:30:31;;;;;;;6.35;4.47;;;9.60;99.90;;;;;;4876665;29;20235;-69
2021/04/09 16:32:58;;;;;;;4.28;3.88;;;9.50;99.90;;;;;;4869081;29;20219;-69
2021/04/09 16:35:26;;;;;;;4.03;3.70;;;9.50;99.90;;;;;;4886220;29;20214;-69
2021/04/09 16:37:52;;;;;;;6.13;5.47;;;9.40;99.90;;;;;;4882001;29;20291;-69
2021/04/09 16:40:18;;;;;;;3.40;3.10;;;9.40;99.90;;;;;;4879625;29;20231;-69
2021/04/09 16:42:45;;;;;;;4.40;4.20;;;9.30;99.90;;;;;;4864070;29;20288;-70
2021/04/09 16:45:13;;;;;;;4.05;3.78;;;9.20;99.90;;;;;;4878143;29;20541;-69
2021/04/09 16:47:40;;;;;;;2.58;2.47;;;9.10;99.90;;;;;;4875590;29;20276;-70
2021/04/09 16:50:08;;;;;;;2.17;2.08;;;9.00;99.90;;;;;;4877880;29;20215;-71
2021/04/09 16:52:35;;;;;;;2.60;2.50;;;8.90;99.90;;;;;;4871647;29;20208;-70